TimeEDT,TemperatureF,Dew PointF,Humidity,Sea Level PressureIn,VisibilityMPH,Wind Direction,Wind SpeedMPH,Gust SpeedMPH,PrecipitationIn,Events,Conditions,WindDirDegrees,DateUTC
12:53 AM,68.0,62.1,81,30.18,10.0,NNE,5.8,-,N/A,,Clear,30,2012-10-13 04:53:00
1:53 AM,69.1,63.0,81,30.17,10.0,North,5.8,-,N/A,,Clear,10,2012-10-13 05:53:00
2:53 AM,68.0,64.0,87,30.15,10.0,Calm,Calm,-,N/A,,Clear,0,2012-10-13 06:53:00
3:53 AM,66.9,64.0,90,30.14,10.0,North,5.8,-,N/A,,Clear,10,2012-10-13 07:53:00
4:53 AM,66.9,64.0,90,30.14,10.0,NNE,6.9,-,N/A,,Clear,20,2012-10-13 08:53:00
5:53 AM,66.9,63.0,87,30.15,10.0,North,8.1,-,N/A,,Clear,10,2012-10-13 09:53:00
6:53 AM,68.0,64.0,87,30.16,10.0,NNE,5.8,-,N/A,,Scattered Clouds,20,2012-10-13 10:53:00
7:53 AM,68.0,64.0,87,30.17,10.0,NNE,8.1,-,N/A,,Partly Cloudy,20,2012-10-13 11:53:00
8:53 AM,72.0,64.9,78,30.19,10.0,NNE,8.1,-,N/A,,Clear,20,2012-10-13 12:53:00
9:53 AM,78.1,64.9,64,30.19,10.0,ENE,10.4,-,N/A,,Clear,60,2012-10-13 13:53:00
10:53 AM,81.0,63.0,54,30.20,10.0,ENE,17.3,26.5,N/A,,Clear,60,2012-10-13 14:53:00
11:53 AM,82.0,62.1,51,30.19,10.0,ENE,16.1,26.5,N/A,,Partly Cloudy,70,2012-10-13 15:53:00
12:53 PM,84.0,64.0,51,30.18,10.0,ENE,18.4,-,N/A,,Scattered Clouds,60,2012-10-13 16:53:00
1:53 PM,86.0,63.0,46,30.15,10.0,East,18.4,-,N/A,,Partly Cloudy,90,2012-10-13 17:53:00
2:53 PM,84.9,62.1,46,30.13,10.0,ENE,16.1,-,N/A,,Mostly Cloudy,70,2012-10-13 18:53:00
3:53 PM,84.9,60.1,43,30.12,10.0,ENE,18.4,-,N/A,,Partly Cloudy,70,2012-10-13 19:53:00
4:53 PM,84.9,59.0,41,30.11,10.0,NE,15.0,-,N/A,,Partly Cloudy,50,2012-10-13 20:53:00
5:53 PM,81.0,63.0,54,30.11,10.0,ENE,9.2,-,N/A,,Partly Cloudy,60,2012-10-13 21:53:00
6:53 PM,79.0,63.0,58,30.12,10.0,ENE,11.5,-,N/A,,Clear,60,2012-10-13 22:53:00
8:53 PM,75.9,64.9,69,30.15,10.0,NE,8.1,-,N/A,,Mostly Cloudy,50,2012-10-14 00:53:00
9:53 PM,73.0,64.9,76,30.15,10.0,NE,8.1,-,N/A,,Partly Cloudy,40,2012-10-14 01:53:00
10:53 PM,75.0,64.9,71,30.15,10.0,NNE,8.1,-,N/A,,Overcast,30,2012-10-14 02:53:00